createdAt,value
2018-06-13T00:00:22.779Z,64.59
2018-06-13T00:02:50.972Z,64.44
2018-06-13T00:05:19.233Z,65.12
2018-06-13T00:07:47.383Z,64.44
2018-06-13T00:10:15.559Z,65.04
2018-06-13T00:12:43.689Z,64.87
2018-06-13T00:15:11.932Z,65.70
2018-06-13T00:17:41.157Z,64.92
2018-06-13T00:20:09.403Z,66.15
2018-06-13T00:22:38.494Z,65.47
2018-06-13T00:25:07.031Z,65.32
2018-06-13T00:27:35.497Z,65.84
2018-06-13T00:30:04.009Z,65.72
2018-06-13T00:32:32.210Z,66.20
2018-06-13T00:35:01.588Z,66.46
2018-06-13T00:37:29.738Z,65.71
2018-06-13T00:39:58.060Z,66.48
2018-06-13T00:42:26.214Z,66.35
2018-06-13T00:44:54.745Z,66.05
2018-06-13T00:47:23.139Z,65.88
2018-06-13T00:49:51.269Z,65.73
2018-06-13T00:52:19.568Z,65.65
2018-06-13T00:54:47.850Z,65.57
2018-06-13T00:57:16.076Z,65.26
2018-06-13T00:59:44.219Z,65.35
2018-06-13T01:02:12.379Z,65.33
2018-06-13T01:04:40.518Z,65.37
2018-06-13T01:07:08.879Z,65.09
2018-06-13T01:09:37.070Z,65.75
2018-06-13T01:12:05.813Z,65.45
2018-06-13T01:14:34.048Z,66.13
2018-06-13T01:17:02.312Z,66.23
2018-06-13T01:19:30.724Z,65.65
2018-06-13T01:21:58.848Z,66.66
2018-06-13T01:24:27.303Z,66.88
2018-06-13T01:26:55.571Z,66.27
2018-06-13T01:29:24.123Z,68.06
2018-06-13T01:31:52.992Z,66.74
2018-06-13T01:34:21.350Z,67.20
2018-06-13T01:36:49.620Z,67.14
2018-06-13T01:39:17.764Z,66.62
2018-06-13T01:41:46.195Z,66.55
2018-06-13T01:44:14.398Z,66.83
2018-06-13T01:46:42.515Z,66.91
2018-06-13T01:49:10.773Z,66.31
2018-06-13T01:51:38.999Z,66.69
2018-06-13T01:54:07.600Z,66.63
2018-06-13T01:56:36.203Z,66.94
2018-06-13T01:59:04.344Z,66.63
2018-06-13T02:01:32.643Z,66.28
2018-06-13T02:04:01.182Z,66.27
2018-06-13T02:06:29.363Z,66.28
2018-06-13T02:08:57.689Z,67.36
2018-06-13T02:11:25.873Z,67.13
2018-06-13T02:13:54.016Z,66.86
2018-06-13T02:16:22.340Z,66.71
2018-06-13T02:18:50.956Z,67.38
2018-06-13T02:21:19.444Z,67.29
2018-06-13T02:23:47.910Z,67.12
2018-06-13T02:26:16.027Z,66.70
2018-06-13T02:28:44.329Z,66.33
2018-06-13T02:31:12.679Z,66.53
2018-06-13T02:33:41.087Z,66.90
2018-06-13T02:36:09.468Z,66.31
2018-06-13T02:38:37.540Z,66.09
2018-06-13T02:41:06.737Z,66.94
2018-06-13T02:43:34.900Z,66.83
2018-06-13T02:46:03.157Z,66.41
2018-06-13T02:48:31.433Z,65.67
2018-06-13T02:50:59.568Z,66.94
2018-06-13T02:53:27.691Z,67.23
2018-06-13T02:55:56.677Z,66.03
2018-06-13T02:58:25.639Z,66.66
2018-06-13T03:00:53.831Z,65.79
2018-06-13T03:03:22.614Z,66.18
2018-06-13T03:05:50.732Z,66.31
2018-06-13T03:08:18.884Z,65.46
2018-06-13T03:10:47.265Z,66.33
2018-06-13T03:13:15.425Z,65.50
2018-06-13T03:15:43.571Z,66.63
2018-06-13T03:18:11.807Z,65.99
2018-06-13T03:20:40.194Z,66.14
2018-06-13T03:23:09.081Z,65.68
2018-06-13T03:25:37.759Z,66.55
2018-06-13T03:28:06.368Z,66.71
2018-06-13T03:30:34.488Z,66.65
2018-06-13T03:33:02.668Z,65.20
2018-06-13T03:35:30.805Z,65.78
2018-06-13T03:37:58.956Z,65.37
2018-06-13T03:40:27.122Z,65.62
2018-06-13T03:42:55.350Z,65.29
2018-06-13T03:45:23.681Z,64.74
2018-06-13T03:47:51.961Z,64.86
2018-06-13T03:50:20.143Z,64.99
2018-06-13T03:52:48.347Z,65.91
2018-06-13T03:55:16.712Z,65.98
2018-06-13T03:57:44.888Z,65.37
2018-06-13T04:00:13.100Z,65.73
2018-06-13T04:02:41.337Z,65.17
2018-06-13T04:05:09.497Z,65.30
2018-06-13T04:07:37.762Z,66.24
2018-06-13T04:10:05.906Z,65.02
2018-06-13T04:12:34.061Z,65.37
2018-06-13T04:17:52.542Z,65.44
2018-06-13T04:20:21.770Z,64.87
2018-06-13T04:22:49.925Z,64.38
2018-06-13T04:25:18.182Z,65.53
2018-06-13T04:27:46.319Z,64.21
2018-06-13T04:30:14.404Z,64.02
2018-06-13T04:32:42.543Z,63.95
2018-06-13T04:35:11.893Z,64.65
2018-06-13T04:37:40.087Z,63.53
2018-06-13T04:40:09.297Z,63.27
2018-06-13T04:42:37.498Z,64.61
2018-06-13T04:45:05.758Z,64.92
2018-06-13T04:47:34.113Z,64.40
2018-06-13T04:50:02.338Z,64.06
2018-06-13T04:52:30.622Z,64.36
2018-06-13T04:54:58.844Z,63.34
2018-06-13T04:57:26.967Z,63.33
2018-06-13T04:59:55.134Z,63.15
2018-06-13T05:02:23.415Z,62.74
2018-06-13T05:04:51.578Z,61.97
2018-06-13T05:07:21.337Z,61.80
2018-06-13T05:09:49.491Z,61.79
2018-06-13T05:12:22.671Z,61.80
2018-06-13T05:14:51.835Z,61.12
2018-06-13T05:17:20.127Z,61.74
2018-06-13T05:19:48.268Z,61.11
2018-06-13T05:22:16.375Z,62.46
2018-06-13T05:24:44.837Z,62.21
2018-06-13T05:27:12.934Z,63.42
2018-06-13T05:29:41.058Z,63.58
2018-06-13T05:32:09.565Z,63.25
2018-06-13T05:34:37.705Z,64.11
2018-06-13T05:37:06.224Z,64.05
2018-06-13T05:39:34.411Z,64.92
2018-06-13T05:42:02.573Z,65.83
2018-06-13T05:44:30.820Z,65.62
2018-06-13T05:46:58.942Z,65.42
2018-06-13T05:49:27.149Z,65.13
2018-06-13T05:51:55.984Z,64.91
2018-06-13T05:54:24.124Z,64.61
2018-06-13T05:56:52.295Z,65.30
2018-06-13T05:59:21.004Z,65.22
2018-06-13T06:01:49.128Z,64.33
2018-06-13T06:04:17.248Z,64.46
2018-06-13T06:06:45.871Z,64.52
2018-06-13T06:09:13.943Z,63.88
2018-06-13T06:11:42.057Z,63.97
2018-06-13T06:14:10.609Z,63.90
2018-06-13T06:16:38.735Z,64.07
2018-06-13T06:19:06.828Z,63.43
2018-06-13T06:21:34.920Z,62.83
2018-06-13T06:24:03.409Z,62.82
2018-06-13T06:26:31.483Z,62.97
2018-06-13T06:28:59.543Z,62.03
2018-06-13T06:31:27.826Z,61.04
2018-06-13T06:33:55.976Z,61.60
2018-06-13T06:36:24.098Z,60.68
2018-06-13T06:38:52.481Z,61.40
2018-06-13T06:41:20.635Z,60.30
2018-06-13T06:43:48.906Z,58.31
2018-06-13T06:46:17.105Z,57.85
2018-06-13T06:48:45.277Z,57.03
2018-06-13T06:51:13.453Z,58.22
2018-06-13T06:53:41.594Z,57.42
2018-06-13T06:56:10.120Z,56.69
2018-06-13T06:58:38.349Z,56.87
2018-06-13T07:01:06.542Z,56.37
2018-06-13T07:03:34.643Z,57.00
2018-06-13T07:06:02.791Z,57.84
2018-06-13T07:08:30.917Z,56.32
2018-06-13T07:10:59.042Z,55.67
2018-06-13T07:13:27.230Z,56.47
2018-06-13T07:15:55.502Z,56.32
2018-06-13T07:18:23.688Z,56.58
2018-06-13T07:20:52.062Z,55.14
2018-06-13T07:23:20.180Z,55.63
2018-06-13T07:25:48.299Z,53.31
2018-06-13T07:28:16.439Z,54.54
2018-06-13T07:30:44.756Z,54.94
2018-06-13T07:33:12.922Z,54.82
2018-06-13T07:35:41.092Z,55.62
2018-06-13T07:38:10.504Z,54.41
2018-06-13T07:40:39.259Z,54.31
2018-06-13T07:43:08.001Z,54.43
2018-06-13T07:45:36.166Z,55.22
2018-06-13T07:48:04.310Z,55.42
2018-06-13T07:50:32.487Z,54.84
2018-06-13T07:53:00.744Z,55.40
2018-06-13T07:55:28.876Z,54.89
2018-06-13T07:57:56.978Z,54.69
2018-06-13T08:00:25.335Z,54.38
2018-06-13T08:02:53.559Z,54.19
2018-06-13T08:05:21.730Z,52.92
2018-06-13T08:07:50.106Z,52.92
2018-06-13T08:10:18.806Z,53.73
2018-06-13T08:12:47.109Z,54.03
2018-06-13T08:15:15.341Z,54.41
2018-06-13T08:17:43.497Z,52.19
2018-06-13T08:20:11.816Z,52.40
2018-06-13T08:22:40.711Z,51.24
2018-06-13T08:25:08.867Z,52.48
2018-06-13T08:27:47.055Z,51.96
2018-06-13T08:30:15.689Z,51.05
2018-06-13T08:32:43.850Z,52.12
2018-06-13T08:35:12.091Z,51.18
2018-06-13T08:37:40.661Z,51.75
2018-06-13T08:40:08.731Z,51.07
2018-06-13T08:42:36.960Z,52.42
2018-06-13T08:45:05.612Z,53.53
2018-06-13T08:47:33.695Z,53.23
2018-06-13T08:50:02.120Z,53.90
2018-06-13T08:52:30.491Z,53.70
2018-06-13T08:54:58.779Z,54.30
2018-06-13T08:57:27.381Z,54.14
2018-06-13T08:59:55.934Z,54.49
2018-06-13T09:02:24.319Z,53.32
2018-06-13T09:04:52.983Z,52.85
2018-06-13T09:07:21.244Z,53.04
2018-06-13T09:09:49.315Z,53.44
2018-06-13T09:12:18.631Z,53.94
2018-06-13T09:14:46.795Z,51.91
2018-06-13T09:17:17.232Z,52.63
2018-06-13T09:19:45.277Z,52.00
2018-06-13T09:22:13.598Z,51.03
2018-06-13T09:24:42.099Z,51.39
2018-06-13T09:27:10.875Z,51.36
2018-06-13T09:29:38.978Z,52.00
2018-06-13T09:32:07.943Z,52.20
2018-06-13T09:34:36.025Z,51.37
2018-06-13T09:37:04.187Z,52.23
2018-06-13T09:39:32.802Z,51.86
2018-06-13T09:42:02.074Z,52.42
2018-06-13T09:44:30.848Z,52.42
2018-06-13T09:47:06.906Z,52.51
2018-06-13T09:49:31.024Z,52.88
2018-06-13T09:51:59.177Z,52.76
2018-06-13T09:54:27.400Z,52.64
2018-06-13T09:56:55.520Z,52.21
2018-06-13T09:59:23.642Z,52.13
2018-06-13T10:01:57.110Z,51.70
2018-06-13T10:04:25.351Z,53.03
2018-06-13T10:06:54.175Z,52.92
2018-06-13T10:09:22.320Z,53.25
2018-06-13T10:11:50.504Z,52.92
2018-06-13T10:14:18.682Z,54.27
2018-06-13T10:16:46.920Z,53.35
2018-06-13T10:19:15.019Z,53.67
2018-06-13T10:21:43.135Z,52.35
2018-06-13T10:24:11.437Z,52.92
2018-06-13T10:26:39.610Z,51.98
2018-06-13T10:29:07.783Z,51.95
2018-06-13T10:31:36.069Z,51.48
2018-06-13T10:34:04.220Z,50.02
2018-06-13T10:36:32.947Z,49.93
2018-06-13T10:39:01.143Z,50.32
2018-06-13T10:41:29.372Z,49.35
2018-06-13T10:43:58.456Z,48.16
2018-06-13T10:46:26.591Z,48.25
2018-06-13T10:48:54.696Z,48.41
2018-06-13T10:51:22.896Z,47.98
2018-06-13T10:53:51.054Z,48.87
2018-06-13T10:56:19.701Z,47.79
2018-06-13T10:58:47.839Z,48.41
2018-06-13T11:01:15.943Z,48.72
2018-06-13T11:03:44.107Z,49.90
2018-06-13T11:06:12.672Z,50.31
2018-06-13T11:08:41.555Z,49.84
2018-06-13T11:11:10.648Z,50.03
2018-06-13T11:13:38.900Z,50.11
2018-06-13T11:16:07.236Z,48.32
2018-06-13T11:18:35.329Z,48.21
2018-06-13T11:21:03.800Z,49.20
2018-06-13T11:23:31.881Z,46.74
2018-06-13T11:25:59.976Z,47.31
2018-06-13T11:28:29.130Z,46.21
2018-06-13T11:30:57.239Z,47.13
2018-06-13T11:33:25.411Z,45.42
2018-06-13T11:35:53.579Z,45.52
2018-06-13T11:38:21.903Z,43.64
2018-06-13T11:40:50.040Z,44.87
2018-06-13T11:43:18.398Z,46.56
2018-06-13T11:45:47.597Z,47.25
2018-06-13T11:48:15.992Z,45.91
2018-06-13T11:50:44.317Z,45.11
2018-06-13T11:53:12.489Z,45.69
2018-06-13T11:55:41.837Z,45.42
2018-06-13T11:58:09.995Z,46.45
2018-06-13T12:00:38.103Z,47.58
2018-06-13T12:03:07.612Z,47.56
2018-06-13T12:05:36.416Z,47.21
2018-06-13T12:08:04.812Z,47.26
2018-06-13T12:10:33.024Z,47.41
2018-06-13T12:13:01.285Z,47.71
2018-06-13T12:15:29.880Z,47.14
2018-06-13T12:17:57.996Z,46.98
2018-06-13T12:20:26.144Z,46.81
2018-06-13T12:22:54.637Z,47.55
2018-06-13T12:25:23.182Z,47.51
2018-06-13T12:27:52.030Z,47.63
2018-06-13T12:30:20.170Z,47.75
2018-06-13T12:32:49.324Z,48.58
2018-06-13T12:35:17.444Z,48.35
2018-06-13T12:37:45.567Z,47.99
2018-06-13T12:40:13.823Z,47.86
2018-06-13T12:42:41.906Z,47.83
2018-06-13T12:45:10.653Z,47.55
2018-06-13T12:47:38.841Z,47.26
2018-06-13T12:50:07.091Z,46.86
2018-06-13T12:52:35.427Z,46.46
2018-06-13T12:55:07.568Z,46.63
2018-06-13T12:57:35.704Z,45.89
2018-06-13T13:00:04.235Z,46.05
2018-06-13T13:02:32.584Z,45.75
2018-06-13T13:05:01.404Z,45.93
2018-06-13T13:07:29.661Z,45.22
2018-06-13T13:09:57.762Z,46.08
2018-06-13T13:12:25.911Z,45.05
2018-06-13T13:14:54.231Z,45.07
2018-06-13T13:17:22.323Z,45.00
2018-06-13T13:19:50.633Z,45.01
2018-06-13T13:22:18.822Z,45.15
2018-06-13T13:24:47.024Z,45.51
2018-06-13T13:27:15.466Z,46.08
2018-06-13T13:29:43.795Z,45.32
2018-06-13T13:32:12.248Z,45.52
2018-06-13T13:34:40.457Z,45.31
2018-06-13T13:37:08.918Z,46.76
2018-06-13T13:39:37.049Z,47.01
2018-06-13T13:42:05.198Z,47.75
2018-06-13T13:44:33.750Z,47.57
2018-06-13T13:47:01.936Z,48.81
2018-06-13T13:49:30.097Z,48.85
2018-06-13T13:51:58.196Z,48.35
2018-06-13T13:54:26.395Z,48.36
2018-06-13T13:56:54.633Z,48.20
2018-06-13T13:59:22.802Z,46.98
2018-06-13T14:01:52.375Z,47.13
2018-06-13T14:04:20.715Z,46.66
2018-06-13T14:06:48.849Z,47.30
2018-06-13T14:09:17.511Z,46.85
2018-06-13T14:11:45.667Z,46.77
2018-06-13T14:14:13.951Z,47.30
2018-06-13T14:16:43.927Z,48.35
2018-06-13T14:19:12.220Z,49.37
2018-06-13T14:21:41.531Z,49.87
2018-06-13T14:24:09.799Z,49.64
2018-06-13T14:26:37.972Z,50.03
2018-06-13T14:29:06.111Z,49.27
2018-06-13T14:31:34.458Z,49.48
2018-06-13T14:34:02.628Z,49.24
2018-06-13T14:36:31.219Z,49.79
2018-06-13T14:38:59.344Z,49.78
2018-06-13T14:41:27.471Z,49.44
2018-06-13T14:43:56.088Z,50.36
2018-06-13T14:46:24.307Z,50.47
2018-06-13T14:48:52.469Z,50.01
2018-06-13T14:51:20.550Z,49.76
2018-06-13T14:53:48.673Z,49.66
2018-06-13T14:56:22.063Z,49.09
2018-06-13T14:58:50.422Z,49.79
2018-06-13T15:01:18.551Z,49.52
2018-06-13T15:03:46.643Z,49.66
2018-06-13T15:06:14.806Z,51.09
2018-06-13T15:08:42.978Z,50.81
2018-06-13T15:11:11.267Z,50.51
2018-06-13T15:13:39.768Z,50.70
2018-06-13T15:16:08.120Z,49.59
2018-06-13T15:18:36.234Z,49.34
2018-06-13T15:21:04.413Z,50.54
2018-06-13T15:23:32.560Z,50.69
2018-06-13T15:26:01.022Z,51.72
2018-06-13T15:28:29.816Z,50.65
2018-06-13T15:30:57.979Z,51.47
2018-06-13T15:33:26.321Z,52.14
2018-06-13T15:35:55.809Z,52.22
2018-06-13T15:38:24.302Z,52.40
2018-06-13T15:40:52.982Z,52.12
2018-06-13T15:43:21.637Z,52.52
2018-06-13T15:45:50.001Z,53.36
2018-06-13T15:48:18.254Z,53.59
2018-06-13T15:50:46.385Z,52.01
2018-06-13T15:53:14.606Z,53.16
2018-06-13T15:55:43.905Z,52.62
2018-06-13T15:58:12.886Z,52.41
2018-06-13T16:00:41.534Z,53.47
2018-06-13T16:03:09.864Z,52.91
2018-06-13T16:05:38.019Z,52.76
2018-06-13T16:08:06.272Z,53.53
2018-06-13T16:10:34.452Z,54.63
2018-06-13T16:13:02.606Z,53.68
2018-06-13T16:15:30.805Z,53.92
2018-06-13T16:17:58.951Z,53.85
2018-06-13T16:20:27.100Z,53.56
2018-06-13T16:22:55.402Z,54.52
2018-06-13T16:25:23.626Z,53.47
2018-06-13T16:27:51.955Z,52.91
2018-06-13T16:30:21.621Z,54.33
2018-06-13T16:32:50.597Z,53.98
2018-06-13T16:35:18.775Z,52.89
2018-06-13T16:37:46.951Z,53.36
2018-06-13T16:40:15.187Z,53.12
2018-06-13T16:42:43.358Z,53.35
2018-06-13T16:45:11.888Z,53.64
2018-06-13T16:47:40.512Z,53.54
2018-06-13T16:50:20.104Z,53.56
2018-06-13T16:53:05.200Z,52.93
2018-06-13T16:55:37.326Z,53.15
2018-06-13T16:58:05.502Z,53.51
2018-06-13T17:00:33.798Z,53.35
2018-06-13T17:03:02.060Z,53.98
2018-06-13T17:05:31.155Z,53.41
2018-06-13T17:07:59.296Z,53.46
2018-06-13T17:10:27.501Z,53.92
2018-06-13T17:12:55.659Z,54.30
2018-06-13T17:15:23.916Z,54.21
2018-06-13T17:17:52.067Z,53.53
2018-06-13T17:20:20.300Z,53.51
2018-06-13T17:22:48.524Z,53.44
2018-06-13T17:25:17.775Z,53.91
2018-06-13T17:27:46.204Z,53.55
2018-06-13T17:30:14.442Z,53.60
2018-06-13T17:32:43.727Z,53.77
2018-06-13T17:35:12.030Z,52.89
2018-06-13T17:37:40.157Z,51.46
2018-06-13T17:40:08.392Z,51.71
2018-06-13T17:42:37.885Z,51.79
2018-06-13T17:45:06.599Z,53.24
2018-06-13T17:47:34.733Z,53.86
2018-06-13T17:50:03.030Z,52.56
2018-06-13T17:52:31.184Z,52.29
2018-06-13T17:54:59.359Z,53.41
2018-06-13T17:57:27.895Z,54.03
2018-06-13T17:59:56.048Z,54.30
2018-06-13T18:02:24.195Z,54.83
2018-06-13T18:04:52.332Z,54.68
2018-06-13T18:07:20.487Z,54.62
2018-06-13T18:09:48.948Z,54.20
2018-06-13T18:12:17.330Z,53.63
2018-06-13T18:14:45.430Z,53.88
2018-06-13T18:17:13.632Z,53.81
2018-06-13T18:19:41.864Z,53.83
2018-06-13T18:22:10.080Z,53.46
2018-06-13T18:24:38.275Z,52.74
2018-06-13T18:27:06.553Z,52.99
2018-06-13T18:29:35.160Z,53.61
2018-06-13T18:32:03.595Z,53.93
2018-06-13T18:34:31.729Z,54.26
2018-06-13T18:37:00.263Z,54.46
2018-06-13T18:39:28.370Z,55.65
2018-06-13T18:42:17.357Z,55.88
2018-06-13T18:44:45.764Z,56.00
2018-06-13T18:47:14.230Z,55.77
2018-06-13T18:49:42.402Z,56.06
2018-06-13T18:52:10.600Z,55.94
2018-06-13T18:54:38.715Z,56.18
2018-06-13T18:57:06.819Z,55.71
2018-06-13T18:59:35.099Z,55.13
2018-06-13T19:02:03.474Z,56.95
2018-06-13T19:04:31.708Z,56.12
2018-06-13T19:06:59.775Z,56.35
2018-06-13T19:09:27.843Z,56.45
2018-06-13T19:11:55.963Z,55.38
2018-06-13T19:14:24.124Z,56.28
2018-06-13T19:16:52.450Z,56.83
2018-06-13T19:19:20.760Z,56.99
2018-06-13T19:21:49.033Z,57.83
2018-06-13T19:24:17.643Z,56.68
2018-06-13T19:26:46.462Z,55.82
2018-06-13T19:29:15.805Z,56.23
2018-06-13T19:31:43.899Z,56.47
2018-06-13T19:34:12.469Z,56.32
2018-06-13T19:36:40.885Z,55.77
2018-06-13T19:39:09.978Z,56.80
2018-06-13T19:41:38.157Z,56.94
2018-06-13T19:44:06.241Z,56.76
2018-06-13T19:46:34.355Z,57.43
2018-06-13T19:49:02.580Z,56.68
2018-06-13T19:51:30.771Z,55.99
2018-06-13T19:54:04.208Z,56.68
2018-06-13T19:56:33.213Z,57.07
2018-06-13T19:59:01.508Z,56.98
2018-06-13T20:01:30.146Z,56.69
2018-06-13T20:04:03.676Z,56.37
2018-06-13T20:06:31.683Z,55.71
2018-06-13T20:08:59.784Z,56.44
2018-06-13T20:11:27.889Z,56.38
2018-06-13T20:14:01.618Z,56.94
2018-06-13T20:16:46.539Z,56.28
2018-06-13T20:19:20.092Z,56.83
2018-06-13T20:21:48.173Z,56.17
2018-06-13T20:24:16.273Z,55.60
2018-06-13T20:26:50.322Z,55.70
2018-06-13T20:29:23.940Z,55.93
2018-06-13T20:31:52.053Z,55.87
2018-06-13T20:34:20.179Z,56.70
2018-06-13T20:36:48.286Z,56.36
2018-06-13T20:39:16.455Z,56.54
2018-06-13T20:41:44.675Z,56.52
2018-06-13T20:44:14.100Z,56.53
2018-06-13T20:46:42.732Z,56.82
2018-06-13T20:49:10.811Z,58.02
2018-06-13T20:51:38.899Z,57.43
2018-06-13T20:54:07.000Z,56.33
2018-06-13T20:56:35.128Z,56.48
2018-06-13T20:59:03.363Z,56.40
2018-06-13T21:01:31.560Z,57.67
2018-06-13T21:03:59.647Z,56.96
2018-06-13T21:06:28.760Z,56.86
2018-06-13T21:08:57.083Z,56.60
2018-06-13T21:11:26.328Z,56.90
2018-06-13T21:13:55.311Z,57.33
2018-06-13T21:16:23.587Z,56.49
2018-06-13T21:18:51.891Z,56.57
2018-06-13T21:21:20.507Z,56.76
2018-06-13T21:23:49.327Z,57.20
2018-06-13T21:26:17.428Z,57.40
2018-06-13T21:28:45.583Z,57.55
2018-06-13T21:31:14.840Z,57.16
2018-06-13T21:33:43.597Z,56.87
2018-06-13T21:36:13.432Z,56.53
2018-06-13T21:38:41.900Z,57.06
2018-06-13T21:41:10.276Z,57.50
2018-06-13T21:43:38.589Z,57.96
2018-06-13T21:46:08.181Z,58.35
2018-06-13T21:48:36.284Z,57.83
2018-06-13T21:51:04.355Z,57.64
2018-06-13T21:53:32.721Z,57.49
2018-06-13T21:56:00.911Z,57.24
2018-06-13T21:58:29.104Z,56.91
2018-06-13T22:00:57.560Z,56.72
2018-06-13T22:03:25.701Z,56.86
2018-06-13T22:05:54.496Z,57.57
2018-06-13T22:08:22.767Z,57.48
2018-06-13T22:10:51.334Z,57.34
2018-06-13T22:13:19.603Z,57.78
2018-06-13T22:15:47.696Z,56.81
2018-06-13T22:18:15.825Z,56.98
2018-06-13T22:20:44.565Z,57.39
2018-06-13T22:23:13.309Z,57.31
2018-06-13T22:25:41.499Z,57.05
2018-06-13T22:28:09.640Z,57.44
2018-06-13T22:30:38.148Z,58.34
2018-06-13T22:33:06.448Z,58.36
2018-06-13T22:35:34.641Z,57.44
2018-06-13T22:38:02.747Z,57.00
2018-06-13T22:40:32.000Z,58.06
2018-06-13T22:43:00.247Z,57.12
2018-06-13T22:45:28.572Z,57.56
2018-06-13T22:47:56.988Z,57.40
2018-06-13T22:50:25.203Z,57.58
2018-06-13T22:52:53.454Z,57.72
2018-06-13T22:55:21.643Z,58.59
2018-06-13T22:57:49.951Z,58.36
2018-06-13T23:00:38.925Z,57.73
2018-06-13T23:03:07.031Z,58.47
2018-06-13T23:05:37.497Z,58.67
2018-06-13T23:08:05.992Z,58.87
2018-06-13T23:10:34.164Z,59.22
2018-06-13T23:13:02.288Z,60.60
2018-06-13T23:15:30.457Z,60.94
2018-06-13T23:18:05.492Z,61.04
2018-06-13T23:20:33.631Z,60.09
2018-06-13T23:23:01.739Z,60.75
2018-06-13T23:25:29.814Z,60.66
2018-06-13T23:27:58.230Z,59.72
2018-06-13T23:30:26.510Z,60.60
2018-06-13T23:32:54.930Z,59.99
2018-06-13T23:35:23.127Z,59.90
2018-06-13T23:37:51.437Z,60.10
2018-06-13T23:40:19.622Z,60.43
2018-06-13T23:42:47.652Z,60.77
2018-06-13T23:45:15.807Z,60.44
2018-06-13T23:47:43.981Z,61.89
2018-06-13T23:50:12.228Z,61.62
2018-06-13T23:52:40.538Z,61.07
2018-06-13T23:55:08.667Z,61.10
2018-06-13T23:57:36.847Z,62.24
